sensor_id;sensor_type;location;lat;lon;timestamp;P1;durP1;ratioP1;P2;durP2;ratioP2
21890;SDS011;11110;52.386;16.940;2023-04-25T00:02:13;12.63;;;3.20;;
21890;SDS011;11110;52.386;16.940;2023-04-25T00:04:42;16.30;;;3.83;;
21890;SDS011;11110;52.386;16.940;2023-04-25T00:07:13;12.10;;;3.20;;
21890;SDS011;11110;52.386;16.940;2023-04-25T00:09:41;19.53;;;4.27;;
21890;SDS011;11110;52.386;16.940;2023-04-25T00:12:10;13.97;;;3.50;;
21890;SDS011;11110;52.386;16.940;2023-04-25T00:14:38;13.43;;;3.27;;
21890;SDS011;11110;52.386;16.940;2023-04-25T00:17:07;14.40;;;3.33;;
21890;SDS011;11110;52.386;16.940;2023-04-25T00:19:35;14.40;;;3.43;;
21890;SDS011;11110;52.386;16.940;2023-04-25T00:22:04;13.37;;;3.30;;
21890;SDS011;11110;52.386;16.940;2023-04-25T00:24:34;15.40;;;3.57;;
21890;SDS011;11110;52.386;16.940;2023-04-25T00:27:02;13.53;;;3.00;;
21890;SDS011;11110;52.386;16.940;2023-04-25T00:29:31;9.50;;;2.77;;
21890;SDS011;11110;52.386;16.940;2023-04-25T00:32:01;8.50;;;2.60;;
21890;SDS011;11110;52.386;16.940;2023-04-25T00:34:30;13.30;;;3.37;;
21890;SDS011;11110;52.386;16.940;2023-04-25T00:36:59;13.00;;;3.17;;
21890;SDS011;11110;52.386;16.940;2023-04-25T00:39:29;8.47;;;2.33;;
21890;SDS011;11110;52.386;16.940;2023-04-25T00:41:58;9.90;;;2.47;;
21890;SDS011;11110;52.386;16.940;2023-04-25T00:44:29;19.90;;;3.93;;
21890;SDS011;11110;52.386;16.940;2023-04-25T00:46:59;16.07;;;3.57;;
21890;SDS011;11110;52.386;16.940;2023-04-25T00:49:29;9.73;;;2.57;;
21890;SDS011;11110;52.386;16.940;2023-04-25T00:51:58;15.17;;;3.20;;
21890;SDS011;11110;52.386;16.940;2023-04-25T00:54:26;7.20;;;2.30;;
21890;SDS011;11110;52.386;16.940;2023-04-25T00:56:56;10.40;;;2.67;;
21890;SDS011;11110;52.386;16.940;2023-04-25T00:59:28;13.47;;;3.27;;
21890;SDS011;11110;52.386;16.940;2023-04-25T01:01:57;7.43;;;2.30;;
21890;SDS011;11110;52.386;16.940;2023-04-25T01:04:26;11.37;;;3.07;;
21890;SDS011;11110;52.386;16.940;2023-04-25T01:06:55;17.87;;;4.07;;
21890;SDS011;11110;52.386;16.940;2023-04-25T01:09:26;13.00;;;3.37;;
21890;SDS011;11110;52.386;16.940;2023-04-25T01:11:55;9.10;;;2.47;;
21890;SDS011;11110;52.386;16.940;2023-04-25T01:14:25;10.77;;;3.37;;
21890;SDS011;11110;52.386;16.940;2023-04-25T01:16:54;7.60;;;2.63;;
21890;SDS011;11110;52.386;16.940;2023-04-25T01:19:23;9.43;;;2.73;;
21890;SDS011;11110;52.386;16.940;2023-04-25T01:21:53;15.90;;;4.03;;
21890;SDS011;11110;52.386;16.940;2023-04-25T01:24:22;12.87;;;3.43;;
21890;SDS011;11110;52.386;16.940;2023-04-25T01:26:51;12.37;;;3.23;;
21890;SDS011;11110;52.386;16.940;2023-04-25T01:29:23;16.63;;;4.80;;
21890;SDS011;11110;52.386;16.940;2023-04-25T01:31:52;10.93;;;3.07;;
21890;SDS011;11110;52.386;16.940;2023-04-25T01:34:21;8.23;;;3.07;;
21890;SDS011;11110;52.386;16.940;2023-04-25T01:36:49;15.57;;;3.90;;
21890;SDS011;11110;52.386;16.940;2023-04-25T01:39:20;12.10;;;4.03;;
21890;SDS011;11110;52.386;16.940;2023-04-25T01:41:48;8.50;;;2.60;;
21890;SDS011;11110;52.386;16.940;2023-04-25T01:44:17;8.97;;;2.80;;
21890;SDS011;11110;52.386;16.940;2023-04-25T01:46:45;10.17;;;2.83;;
21890;SDS011;11110;52.386;16.940;2023-04-25T01:49:14;7.50;;;2.50;;
21890;SDS011;11110;52.386;16.940;2023-04-25T01:51:43;13.00;;;3.50;;
21890;SDS011;11110;52.386;16.940;2023-04-25T01:54:12;11.50;;;3.37;;
21890;SDS011;11110;52.386;16.940;2023-04-25T01:56:42;10.80;;;3.13;;
21890;SDS011;11110;52.386;16.940;2023-04-25T01:59:11;10.00;;;3.00;;
21890;SDS011;11110;52.386;16.940;2023-04-25T02:01:58;11.10;;;3.27;;
21890;SDS011;11110;52.386;16.940;2023-04-25T02:04:32;9.37;;;3.63;;
21890;SDS011;11110;52.386;16.940;2023-04-25T02:07:01;14.97;;;3.80;;
21890;SDS011;11110;52.386;16.940;2023-04-25T02:09:43;15.93;;;4.03;;
21890;SDS011;11110;52.386;16.940;2023-04-25T02:12:13;15.77;;;4.13;;
21890;SDS011;11110;52.386;16.940;2023-04-25T02:15:00;13.73;;;4.03;;
21890;SDS011;11110;52.386;16.940;2023-04-25T02:17:42;9.70;;;3.00;;
21890;SDS011;11110;52.386;16.940;2023-04-25T02:20:12;9.33;;;3.23;;
21890;SDS011;11110;52.386;16.940;2023-04-25T02:22:40;8.67;;;2.90;;
21890;SDS011;11110;52.386;16.940;2023-04-25T02:25:09;12.53;;;3.53;;
21890;SDS011;11110;52.386;16.940;2023-04-25T02:27:41;13.70;;;4.07;;
21890;SDS011;11110;52.386;16.940;2023-04-25T02:30:10;10.83;;;3.30;;
21890;SDS011;11110;52.386;16.940;2023-04-25T02:32:38;14.83;;;4.40;;
21890;SDS011;11110;52.386;16.940;2023-04-25T02:35:09;12.40;;;3.47;;
21890;SDS011;11110;52.386;16.940;2023-04-25T02:37:38;9.40;;;3.20;;
21890;SDS011;11110;52.386;16.940;2023-04-25T02:40:07;13.33;;;3.53;;
21890;SDS011;11110;52.386;16.940;2023-04-25T02:42:37;10.97;;;3.60;;
21890;SDS011;11110;52.386;16.940;2023-04-25T02:45:07;13.00;;;4.17;;
21890;SDS011;11110;52.386;16.940;2023-04-25T02:47:36;15.30;;;3.80;;
21890;SDS011;11110;52.386;16.940;2023-04-25T02:50:05;10.47;;;3.57;;
21890;SDS011;11110;52.386;16.940;2023-04-25T02:52:34;9.17;;;3.40;;
21890;SDS011;11110;52.386;16.940;2023-04-25T02:55:18;10.93;;;3.43;;
21890;SDS011;11110;52.386;16.940;2023-04-25T02:57:47;14.03;;;3.70;;
21890;SDS011;11110;52.386;16.940;2023-04-25T03:00:27;14.27;;;3.90;;
21890;SDS011;11110;52.386;16.940;2023-04-25T03:02:56;17.10;;;3.97;;
21890;SDS011;11110;52.386;16.940;2023-04-25T03:05:25;8.90;;;2.90;;
21890;SDS011;11110;52.386;16.940;2023-04-25T03:07:53;17.27;;;4.50;;
21890;SDS011;11110;52.386;16.940;2023-04-25T03:10:22;10.33;;;3.30;;
21890;SDS011;11110;52.386;16.940;2023-04-25T03:12:50;7.43;;;2.70;;
21890;SDS011;11110;52.386;16.940;2023-04-25T03:15:19;11.10;;;3.50;;
21890;SDS011;11110;52.386;16.940;2023-04-25T03:17:49;14.47;;;4.33;;
21890;SDS011;11110;52.386;16.940;2023-04-25T03:20:18;11.63;;;3.80;;
21890;SDS011;11110;52.386;16.940;2023-04-25T03:22:46;19.40;;;4.97;;
21890;SDS011;11110;52.386;16.940;2023-04-25T03:25:15;10.67;;;3.60;;
21890;SDS011;11110;52.386;16.940;2023-04-25T03:27:44;11.30;;;3.43;;
21890;SDS011;11110;52.386;16.940;2023-04-25T03:30:13;12.10;;;3.80;;
21890;SDS011;11110;52.386;16.940;2023-04-25T03:32:43;14.40;;;4.27;;
21890;SDS011;11110;52.386;16.940;2023-04-25T03:35:17;4.83;;;2.90;;
21890;SDS011;11110;52.386;16.940;2023-04-25T03:37:45;11.33;;;4.30;;
21890;SDS011;11110;52.386;16.940;2023-04-25T03:40:19;13.70;;;4.30;;
21890;SDS011;11110;52.386;16.940;2023-04-25T03:43:06;10.40;;;3.87;;
21890;SDS011;11110;52.386;16.940;2023-04-25T03:45:36;16.47;;;4.97;;
21890;SDS011;11110;52.386;16.940;2023-04-25T03:48:05;6.77;;;2.93;;
21890;SDS011;11110;52.386;16.940;2023-04-25T03:50:35;14.30;;;4.07;;
21890;SDS011;11110;52.386;16.940;2023-04-25T03:53:03;16.67;;;4.73;;
21890;SDS011;11110;52.386;16.940;2023-04-25T03:55:50;10.53;;;3.83;;
21890;SDS011;11110;52.386;16.940;2023-04-25T03:58:19;7.93;;;3.47;;
21890;SDS011;11110;52.386;16.940;2023-04-25T04:00:49;9.83;;;4.13;;
21890;SDS011;11110;52.386;16.940;2023-04-25T04:03:18;14.93;;;4.43;;
21890;SDS011;11110;52.386;16.940;2023-04-25T04:05:49;13.00;;;4.17;;
21890;SDS011;11110;52.386;16.940;2023-04-25T04:08:17;12.77;;;4.47;;
21890;SDS011;11110;52.386;16.940;2023-04-25T04:10:46;12.67;;;4.53;;
21890;SDS011;11110;52.386;16.940;2023-04-25T04:13:15;14.67;;;4.63;;
21890;SDS011;11110;52.386;16.940;2023-04-25T04:15:44;15.07;;;4.83;;
21890;SDS011;11110;52.386;16.940;2023-04-25T04:18:13;18.03;;;5.67;;
21890;SDS011;11110;52.386;16.940;2023-04-25T04:20:42;15.43;;;5.50;;
21890;SDS011;11110;52.386;16.940;2023-04-25T04:23:12;21.07;;;6.40;;
21890;SDS011;11110;52.386;16.940;2023-04-25T04:25:41;14.60;;;4.70;;
21890;SDS011;11110;52.386;16.940;2023-04-25T04:28:19;8.60;;;4.33;;
21890;SDS011;11110;52.386;16.940;2023-04-25T04:30:56;18.27;;;5.87;;
21890;SDS011;11110;52.386;16.940;2023-04-25T04:33:25;16.17;;;5.37;;
21890;SDS011;11110;52.386;16.940;2023-04-25T04:35:58;15.40;;;5.60;;
21890;SDS011;11110;52.386;16.940;2023-04-25T04:38:29;17.23;;;6.00;;
21890;SDS011;11110;52.386;16.940;2023-04-25T04:41:00;12.67;;;5.43;;
21890;SDS011;11110;52.386;16.940;2023-04-25T04:43:38;19.20;;;6.90;;
21890;SDS011;11110;52.386;16.940;2023-04-25T04:46:20;23.60;;;6.83;;
21890;SDS011;11110;52.386;16.940;2023-04-25T04:49:17;18.97;;;5.73;;
21890;SDS011;11110;52.386;16.940;2023-04-25T04:52:09;20.07;;;6.67;;
21890;SDS011;11110;52.386;16.940;2023-04-25T04:54:53;16.77;;;5.47;;
21890;SDS011;11110;52.386;16.940;2023-04-25T04:57:33;20.50;;;5.60;;
21890;SDS011;11110;52.386;16.940;2023-04-25T05:00:11;13.73;;;5.13;;
21890;SDS011;11110;52.386;16.940;2023-04-25T05:03:04;18.87;;;6.37;;
21890;SDS011;11110;52.386;16.940;2023-04-25T05:05:41;15.47;;;5.37;;
21890;SDS011;11110;52.386;16.940;2023-04-25T05:08:32;13.50;;;5.20;;
21890;SDS011;11110;52.386;16.940;2023-04-25T05:11:15;17.23;;;5.80;;
21890;SDS011;11110;52.386;16.940;2023-04-25T05:14:06;15.20;;;5.63;;
21890;SDS011;11110;52.386;16.940;2023-04-25T05:17:02;16.10;;;5.90;;
21890;SDS011;11110;52.386;16.940;2023-04-25T05:19:53;13.67;;;5.80;;
21890;SDS011;11110;52.386;16.940;2023-04-25T05:22:42;16.03;;;5.40;;
21890;SDS011;11110;52.386;16.940;2023-04-25T05:25:19;12.83;;;4.77;;
21890;SDS011;11110;52.386;16.940;2023-04-25T05:27:59;15.80;;;5.40;;
21890;SDS011;11110;52.386;16.940;2023-04-25T05:30:39;16.43;;;5.37;;
21890;SDS011;11110;52.386;16.940;2023-04-25T05:33:15;12.00;;;4.83;;
21890;SDS011;11110;52.386;16.940;2023-04-25T05:35:45;15.07;;;4.77;;
21890;SDS011;11110;52.386;16.940;2023-04-25T05:38:14;14.73;;;5.00;;
21890;SDS011;11110;52.386;16.940;2023-04-25T05:41:01;12.03;;;4.60;;
21890;SDS011;11110;52.386;16.940;2023-04-25T05:43:40;17.63;;;5.30;;
21890;SDS011;11110;52.386;16.940;2023-04-25T05:46:34;14.43;;;4.90;;
21890;SDS011;11110;52.386;16.940;2023-04-25T05:49:09;18.77;;;5.87;;
21890;SDS011;11110;52.386;16.940;2023-04-25T05:51:52;17.83;;;6.13;;
21890;SDS011;11110;52.386;16.940;2023-04-25T05:54:41;15.07;;;4.80;;
21890;SDS011;11110;52.386;16.940;2023-04-25T05:57:19;21.13;;;5.87;;
21890;SDS011;11110;52.386;16.940;2023-04-25T05:59:50;17.90;;;5.30;;
21890;SDS011;11110;52.386;16.940;2023-04-25T06:02:20;13.87;;;4.47;;
21890;SDS011;11110;52.386;16.940;2023-04-25T06:04:50;23.43;;;6.37;;
21890;SDS011;11110;52.386;16.940;2023-04-25T06:07:19;16.80;;;5.47;;
21890;SDS011;11110;52.386;16.940;2023-04-25T06:09:48;17.17;;;5.03;;
21890;SDS011;11110;52.386;16.940;2023-04-25T06:12:17;20.33;;;5.73;;
21890;SDS011;11110;52.386;16.940;2023-04-25T06:14:46;15.13;;;5.17;;
21890;SDS011;11110;52.386;16.940;2023-04-25T06:17:16;17.23;;;5.27;;
21890;SDS011;11110;52.386;16.940;2023-04-25T06:19:48;11.73;;;4.40;;
21890;SDS011;11110;52.386;16.940;2023-04-25T06:22:18;20.30;;;5.33;;
21890;SDS011;11110;52.386;16.940;2023-04-25T06:24:47;25.27;;;6.33;;
21890;SDS011;11110;52.386;16.940;2023-04-25T06:27:16;13.13;;;4.13;;
21890;SDS011;11110;52.386;16.940;2023-04-25T06:29:45;20.07;;;5.87;;
21890;SDS011;11110;52.386;16.940;2023-04-25T06:32:14;15.50;;;4.50;;
21890;SDS011;11110;52.386;16.940;2023-04-25T06:34:43;13.90;;;4.40;;
21890;SDS011;11110;52.386;16.940;2023-04-25T06:37:12;19.40;;;5.43;;
21890;SDS011;11110;52.386;16.940;2023-04-25T06:39:41;19.60;;;5.17;;
21890;SDS011;11110;52.386;16.940;2023-04-25T06:42:10;19.13;;;5.20;;
21890;SDS011;11110;52.386;16.940;2023-04-25T06:45:05;15.57;;;4.53;;
21890;SDS011;11110;52.386;16.940;2023-04-25T06:47:35;13.60;;;4.60;;
21890;SDS011;11110;52.386;16.940;2023-04-25T06:50:05;16.57;;;4.67;;
21890;SDS011;11110;52.386;16.940;2023-04-25T06:52:35;9.63;;;3.40;;
21890;SDS011;11110;52.386;16.940;2023-04-25T06:55:05;15.00;;;4.10;;
21890;SDS011;11110;52.386;16.940;2023-04-25T06:57:49;16.80;;;4.70;;
21890;SDS011;11110;52.386;16.940;2023-04-25T07:00:40;23.57;;;6.37;;
21890;SDS011;11110;52.386;16.940;2023-04-25T07:03:09;18.47;;;5.37;;
21890;SDS011;11110;52.386;16.940;2023-04-25T07:05:40;22.77;;;5.43;;
21890;SDS011;11110;52.386;16.940;2023-04-25T07:08:08;21.50;;;5.87;;
21890;SDS011;11110;52.386;16.940;2023-04-25T07:10:37;17.30;;;5.27;;
21890;SDS011;11110;52.386;16.940;2023-04-25T07:13:06;16.87;;;4.97;;
21890;SDS011;11110;52.386;16.940;2023-04-25T07:15:35;14.80;;;4.20;;
21890;SDS011;11110;52.386;16.940;2023-04-25T07:18:05;11.97;;;4.07;;
21890;SDS011;11110;52.386;16.940;2023-04-25T07:20:33;15.30;;;4.30;;
21890;SDS011;11110;52.386;16.940;2023-04-25T07:23:04;18.37;;;4.93;;
21890;SDS011;11110;52.386;16.940;2023-04-25T07:25:32;19.27;;;5.67;;
21890;SDS011;11110;52.386;16.940;2023-04-25T07:28:02;18.47;;;5.10;;
21890;SDS011;11110;52.386;16.940;2023-04-25T07:30:31;18.37;;;4.77;;
21890;SDS011;11110;52.386;16.940;2023-04-25T07:33:03;15.63;;;4.77;;
21890;SDS011;11110;52.386;16.940;2023-04-25T07:35:32;16.77;;;4.57;;
21890;SDS011;11110;52.386;16.940;2023-04-25T07:38:01;20.77;;;5.43;;
21890;SDS011;11110;52.386;16.940;2023-04-25T07:40:31;18.30;;;5.33;;
21890;SDS011;11110;52.386;16.940;2023-04-25T07:43:05;17.00;;;4.57;;
21890;SDS011;11110;52.386;16.940;2023-04-25T07:45:47;16.77;;;4.53;;
21890;SDS011;11110;52.386;16.940;2023-04-25T07:48:18;18.43;;;5.20;;
21890;SDS011;11110;52.386;16.940;2023-04-25T07:50:49;17.57;;;5.03;;
21890;SDS011;11110;52.386;16.940;2023-04-25T07:53:17;12.77;;;4.50;;
21890;SDS011;11110;52.386;16.940;2023-04-25T07:55:53;16.43;;;5.17;;
21890;SDS011;11110;52.386;16.940;2023-04-25T07:58:21;16.10;;;5.10;;
21890;SDS011;11110;52.386;16.940;2023-04-25T08:00:54;19.07;;;5.67;;
21890;SDS011;11110;52.386;16.940;2023-04-25T08:03:46;18.50;;;5.53;;
21890;SDS011;11110;52.386;16.940;2023-04-25T08:06:21;20.27;;;5.77;;
21890;SDS011;11110;52.386;16.940;2023-04-25T08:09:00;18.93;;;6.13;;
21890;SDS011;11110;52.386;16.940;2023-04-25T08:11:37;15.20;;;5.20;;
21890;SDS011;11110;52.386;16.940;2023-04-25T08:14:08;20.30;;;6.27;;
21890;SDS011;11110;52.386;16.940;2023-04-25T08:16:37;18.33;;;5.43;;
21890;SDS011;11110;52.386;16.940;2023-04-25T08:19:06;17.13;;;5.63;;
21890;SDS011;11110;52.386;16.940;2023-04-25T08:21:35;19.53;;;5.60;;
21890;SDS011;11110;52.386;16.940;2023-04-25T08:24:07;14.70;;;5.90;;
21890;SDS011;11110;52.386;16.940;2023-04-25T08:26:39;19.67;;;6.10;;
21890;SDS011;11110;52.386;16.940;2023-04-25T08:29:11;15.97;;;5.30;;
21890;SDS011;11110;52.386;16.940;2023-04-25T08:31:41;15.03;;;5.20;;
21890;SDS011;11110;52.386;16.940;2023-04-25T08:34:09;12.32;;;4.97;;
21890;SDS011;11110;52.386;16.940;2023-04-25T08:36:42;16.40;;;5.07;;
21890;SDS011;11110;52.386;16.940;2023-04-25T08:39:37;15.95;;;4.75;;
21890;SDS011;11110;52.386;16.940;2023-04-25T08:42:27;18.30;;;5.63;;
21890;SDS011;11110;52.386;16.940;2023-04-25T08:44:58;12.23;;;4.78;;
21890;SDS011;11110;52.386;16.940;2023-04-25T08:47:35;16.25;;;5.07;;
21890;SDS011;11110;52.386;16.940;2023-04-25T08:50:06;19.73;;;5.78;;
21890;SDS011;11110;52.386;16.940;2023-04-25T08:52:36;13.10;;;5.47;;
21890;SDS011;11110;52.386;16.940;2023-04-25T08:55:08;12.30;;;4.30;;
21890;SDS011;11110;52.386;16.940;2023-04-25T08:57:40;16.70;;;6.22;;
21890;SDS011;11110;52.386;16.940;2023-04-25T09:00:11;12.82;;;4.60;;
21890;SDS011;11110;52.386;16.940;2023-04-25T09:02:43;11.20;;;4.57;;
21890;SDS011;11110;52.386;16.940;2023-04-25T09:05:12;14.88;;;5.60;;
21890;SDS011;11110;52.386;16.940;2023-04-25T09:07:43;17.83;;;5.10;;
21890;SDS011;11110;52.386;16.940;2023-04-25T09:10:13;16.05;;;5.07;;
21890;SDS011;11110;52.386;16.940;2023-04-25T09:12:44;13.85;;;4.93;;
21890;SDS011;11110;52.386;16.940;2023-04-25T09:15:30;18.00;;;5.10;;
21890;SDS011;11110;52.386;16.940;2023-04-25T09:18:22;17.20;;;5.72;;
21890;SDS011;11110;52.386;16.940;2023-04-25T09:20:56;16.35;;;5.20;;
21890;SDS011;11110;52.386;16.940;2023-04-25T09:23:41;18.67;;;6.05;;
21890;SDS011;11110;52.386;16.940;2023-04-25T09:26:13;19.00;;;5.63;;
21890;SDS011;11110;52.386;16.940;2023-04-25T09:28:45;20.05;;;5.75;;
21890;SDS011;11110;52.386;16.940;2023-04-25T09:31:21;21.23;;;5.82;;
21890;SDS011;11110;52.386;16.940;2023-04-25T09:33:58;14.05;;;4.82;;
21890;SDS011;11110;52.386;16.940;2023-04-25T09:36:31;16.45;;;5.15;;
21890;SDS011;11110;52.386;16.940;2023-04-25T09:39:26;13.43;;;4.30;;
21890;SDS011;11110;52.386;16.940;2023-04-25T09:42:03;18.08;;;5.00;;
21890;SDS011;11110;52.386;16.940;2023-04-25T09:44:35;16.25;;;4.50;;
21890;SDS011;11110;52.386;16.940;2023-04-25T09:47:04;17.63;;;5.07;;
21890;SDS011;11110;52.386;16.940;2023-04-25T09:49:38;15.75;;;4.40;;
21890;SDS011;11110;52.386;16.940;2023-04-25T09:52:13;16.20;;;4.15;;
21890;SDS011;11110;52.386;16.940;2023-04-25T09:55:12;19.83;;;5.18;;
21890;SDS011;11110;52.386;16.940;2023-04-25T09:57:43;17.90;;;5.20;;
21890;SDS011;11110;52.386;16.940;2023-04-25T10:00:19;18.13;;;4.88;;
21890;SDS011;11110;52.386;16.940;2023-04-25T10:02:49;11.38;;;3.60;;
21890;SDS011;11110;52.386;16.940;2023-04-25T10:05:49;13.77;;;4.18;;
21890;SDS011;11110;52.386;16.940;2023-04-25T10:08:18;15.00;;;4.32;;
21890;SDS011;11110;52.386;16.940;2023-04-25T10:10:49;17.20;;;4.90;;
21890;SDS011;11110;52.386;16.940;2023-04-25T10:13:17;10.77;;;4.15;;
21890;SDS011;11110;52.386;16.940;2023-04-25T10:15:48;14.23;;;4.35;;
21890;SDS011;11110;52.386;16.940;2023-04-25T10:18:19;12.60;;;4.40;;
21890;SDS011;11110;52.386;16.940;2023-04-25T10:20:47;13.38;;;4.32;;
21890;SDS011;11110;52.386;16.940;2023-04-25T10:23:19;23.48;;;5.68;;
21890;SDS011;11110;52.386;16.940;2023-04-25T10:25:48;15.52;;;4.50;;
21890;SDS011;11110;52.386;16.940;2023-04-25T10:28:18;12.68;;;4.07;;
21890;SDS011;11110;52.386;16.940;2023-04-25T10:31:00;8.82;;;3.65;;
21890;SDS011;11110;52.386;16.940;2023-04-25T10:33:35;7.05;;;3.58;;
21890;SDS011;11110;52.386;16.940;2023-04-25T10:36:11;12.98;;;3.80;;
21890;SDS011;11110;52.386;16.940;2023-04-25T10:38:41;15.38;;;4.40;;
21890;SDS011;11110;52.386;16.940;2023-04-25T10:41:11;14.27;;;3.38;;
21890;SDS011;11110;52.386;16.940;2023-04-25T10:43:40;13.90;;;4.13;;
21890;SDS011;11110;52.386;16.940;2023-04-25T10:46:16;14.73;;;4.32;;
21890;SDS011;11110;52.386;16.940;2023-04-25T10:48:46;14.68;;;4.18;;
21890;SDS011;11110;52.386;16.940;2023-04-25T10:51:18;14.48;;;4.18;;
21890;SDS011;11110;52.386;16.940;2023-04-25T10:53:58;15.10;;;4.05;;
21890;SDS011;11110;52.386;16.940;2023-04-25T10:56:28;13.13;;;3.97;;
21890;SDS011;11110;52.386;16.940;2023-04-25T10:59:07;14.10;;;4.38;;
21890;SDS011;11110;52.386;16.940;2023-04-25T11:01:40;11.50;;;3.90;;
21890;SDS011;11110;52.386;16.940;2023-04-25T11:04:20;10.20;;;3.75;;
21890;SDS011;11110;52.386;16.940;2023-04-25T11:09:38;14.27;;;4.45;;
21890;SDS011;11110;52.386;16.940;2023-04-25T11:12:08;9.02;;;3.40;;
21890;SDS011;11110;52.386;16.940;2023-04-25T11:14:38;10.25;;;3.75;;
21890;SDS011;11110;52.386;16.940;2023-04-25T11:17:09;15.68;;;4.47;;
21890;SDS011;11110;52.386;16.940;2023-04-25T11:19:38;15.90;;;4.25;;
21890;SDS011;11110;52.386;16.940;2023-04-25T11:22:07;17.25;;;5.05;;
21890;SDS011;11110;52.386;16.940;2023-04-25T11:24:37;16.30;;;4.70;;
21890;SDS011;11110;52.386;16.940;2023-04-25T11:27:06;12.45;;;4.22;;
21890;SDS011;11110;52.386;16.940;2023-04-25T11:29:36;8.65;;;3.05;;
21890;SDS011;11110;52.386;16.940;2023-04-25T11:32:04;12.27;;;3.58;;
21890;SDS011;11110;52.386;16.940;2023-04-25T11:34:34;11.52;;;3.63;;
21890;SDS011;11110;52.386;16.940;2023-04-25T11:37:03;14.63;;;3.95;;
21890;SDS011;11110;52.386;16.940;2023-04-25T11:39:32;15.82;;;4.22;;
21890;SDS011;11110;52.386;16.940;2023-04-25T11:42:01;13.07;;;3.88;;
21890;SDS011;11110;52.386;16.940;2023-04-25T11:44:39;10.77;;;3.20;;
21890;SDS011;11110;52.386;16.940;2023-04-25T11:47:08;18.75;;;4.63;;
21890;SDS011;11110;52.386;16.940;2023-04-25T11:49:38;16.60;;;4.22;;
21890;SDS011;11110;52.386;16.940;2023-04-25T11:52:06;14.35;;;4.00;;
21890;SDS011;11110;52.386;16.940;2023-04-25T11:54:35;13.52;;;4.10;;
21890;SDS011;11110;52.386;16.940;2023-04-25T11:57:04;24.77;;;5.82;;
21890;SDS011;11110;52.386;16.940;2023-04-25T11:59:33;15.63;;;4.40;;
21890;SDS011;11110;52.386;16.940;2023-04-25T12:02:02;14.80;;;4.20;;
21890;SDS011;11110;52.386;16.940;2023-04-25T12:04:30;14.10;;;4.28;;
21890;SDS011;11110;52.386;16.940;2023-04-25T12:07:01;13.70;;;4.03;;
21890;SDS011;11110;52.386;16.940;2023-04-25T12:09:30;14.65;;;4.10;;
21890;SDS011;11110;52.386;16.940;2023-04-25T12:12:00;18.77;;;4.63;;
21890;SDS011;11110;52.386;16.940;2023-04-25T12:14:31;13.13;;;3.70;;
21890;SDS011;11110;52.386;16.940;2023-04-25T12:17:01;13.23;;;3.90;;
21890;SDS011;11110;52.386;16.940;2023-04-25T12:19:34;16.15;;;3.95;;
21890;SDS011;11110;52.386;16.940;2023-04-25T12:22:19;13.80;;;3.70;;
21890;SDS011;11110;52.386;16.940;2023-04-25T12:24:49;12.68;;;3.70;;
21890;SDS011;11110;52.386;16.940;2023-04-25T12:27:20;14.18;;;3.58;;
21890;SDS011;11110;52.386;16.940;2023-04-25T12:29:51;13.93;;;3.85;;
21890;SDS011;11110;52.386;16.940;2023-04-25T12:32:21;9.77;;;2.75;;
21890;SDS011;11110;52.386;16.940;2023-04-25T12:34:49;16.27;;;4.20;;
21890;SDS011;11110;52.386;16.940;2023-04-25T12:37:19;12.27;;;3.55;;
21890;SDS011;11110;52.386;16.940;2023-04-25T12:39:48;16.27;;;4.15;;
21890;SDS011;11110;52.386;16.940;2023-04-25T12:42:17;14.73;;;5.00;;
21890;SDS011;11110;52.386;16.940;2023-04-25T12:44:45;17.85;;;6.03;;
21890;SDS011;11110;52.386;16.940;2023-04-25T12:47:14;14.65;;;5.82;;
21890;SDS011;11110;52.386;16.940;2023-04-25T12:49:42;18.08;;;5.53;;
21890;SDS011;11110;52.386;16.940;2023-04-25T12:52:11;19.25;;;5.00;;
21890;SDS011;11110;52.386;16.940;2023-04-25T12:54:41;19.63;;;6.35;;
21890;SDS011;11110;52.386;16.940;2023-04-25T12:57:10;20.83;;;6.93;;
21890;SDS011;11110;52.386;16.940;2023-04-25T12:59:38;19.02;;;6.03;;
21890;SDS011;11110;52.386;16.940;2023-04-25T13:02:07;15.20;;;6.10;;
21890;SDS011;11110;52.386;16.940;2023-04-25T13:04:36;16.73;;;5.95;;
21890;SDS011;11110;52.386;16.940;2023-04-25T13:07:04;15.77;;;5.38;;
21890;SDS011;11110;52.386;16.940;2023-04-25T13:09:33;11.50;;;4.28;;
21890;SDS011;11110;52.386;16.940;2023-04-25T13:12:03;16.58;;;5.10;;
21890;SDS011;11110;52.386;16.940;2023-04-25T13:14:31;12.77;;;3.53;;
21890;SDS011;11110;52.386;16.940;2023-04-25T13:17:00;10.55;;;3.60;;
21890;SDS011;11110;52.386;16.940;2023-04-25T13:19:28;12.48;;;3.38;;
21890;SDS011;11110;52.386;16.940;2023-04-25T13:21:57;12.95;;;3.97;;
21890;SDS011;11110;52.386;16.940;2023-04-25T13:24:26;13.82;;;3.20;;
21890;SDS011;11110;52.386;16.940;2023-04-25T13:26:54;11.35;;;3.03;;
21890;SDS011;11110;52.386;16.940;2023-04-25T13:29:24;15.77;;;3.90;;
21890;SDS011;11110;52.386;16.940;2023-04-25T13:31:53;12.55;;;3.33;;
21890;SDS011;11110;52.386;16.940;2023-04-25T13:34:21;12.05;;;3.17;;
21890;SDS011;11110;52.386;16.940;2023-04-25T13:36:50;13.18;;;2.47;;
21890;SDS011;11110;52.386;16.940;2023-04-25T13:39:18;9.38;;;2.45;;
21890;SDS011;11110;52.386;16.940;2023-04-25T13:41:47;8.00;;;2.53;;
21890;SDS011;11110;52.386;16.940;2023-04-25T13:44:16;3.20;;;1.65;;
21890;SDS011;11110;52.386;16.940;2023-04-25T13:46:46;11.32;;;3.38;;
21890;SDS011;11110;52.386;16.940;2023-04-25T13:49:14;16.83;;;3.53;;
21890;SDS011;11110;52.386;16.940;2023-04-25T13:51:43;11.23;;;3.03;;
21890;SDS011;11110;52.386;16.940;2023-04-25T13:54:11;19.57;;;4.57;;
21890;SDS011;11110;52.386;16.940;2023-04-25T13:56:41;17.30;;;4.27;;
21890;SDS011;11110;52.386;16.940;2023-04-25T13:59:09;15.80;;;4.18;;
21890;SDS011;11110;52.386;16.940;2023-04-25T14:01:38;17.90;;;4.57;;
21890;SDS011;11110;52.386;16.940;2023-04-25T14:04:08;13.48;;;4.65;;
21890;SDS011;11110;52.386;16.940;2023-04-25T14:06:38;16.63;;;4.73;;
21890;SDS011;11110;52.386;16.940;2023-04-25T14:09:06;14.90;;;4.33;;
21890;SDS011;11110;52.386;16.940;2023-04-25T14:11:37;10.67;;;3.70;;
21890;SDS011;11110;52.386;16.940;2023-04-25T14:14:05;12.63;;;3.97;;
21890;SDS011;11110;52.386;16.940;2023-04-25T14:16:34;15.87;;;4.43;;
21890;SDS011;11110;52.386;16.940;2023-04-25T14:19:03;9.60;;;3.73;;
21890;SDS011;11110;52.386;16.940;2023-04-25T14:21:33;13.68;;;4.20;;
21890;SDS011;11110;52.386;16.940;2023-04-25T14:24:01;16.48;;;4.82;;
21890;SDS011;11110;52.386;16.940;2023-04-25T14:26:32;19.30;;;5.40;;
21890;SDS011;11110;52.386;16.940;2023-04-25T14:29:01;9.23;;;3.80;;
21890;SDS011;11110;52.386;16.940;2023-04-25T14:31:29;14.93;;;4.07;;
21890;SDS011;11110;52.386;16.940;2023-04-25T14:33:58;12.15;;;3.45;;
21890;SDS011;11110;52.386;16.940;2023-04-25T14:36:27;16.02;;;3.97;;
21890;SDS011;11110;52.386;16.940;2023-04-25T14:38:58;18.53;;;4.70;;
21890;SDS011;11110;52.386;16.940;2023-04-25T14:41:27;12.88;;;3.65;;
21890;SDS011;11110;52.386;16.940;2023-04-25T14:43:56;15.63;;;4.47;;
21890;SDS011;11110;52.386;16.940;2023-04-25T14:46:24;18.00;;;4.80;;
21890;SDS011;11110;52.386;16.940;2023-04-25T14:48:53;13.97;;;3.87;;
21890;SDS011;11110;52.386;16.940;2023-04-25T14:51:23;27.20;;;6.00;;
21890;SDS011;11110;52.386;16.940;2023-04-25T14:53:53;22.07;;;4.63;;
21890;SDS011;11110;52.386;16.940;2023-04-25T14:56:23;18.00;;;4.27;;